sensor_id;sensor_type;location;lat;lon;timestamp;P1;durP1;ratioP1;P2;durP2;ratioP2
46036;SDS011;31769;49.304;8.428;2022-11-04T00:02:28;1.85;;;1.75;;
46036;SDS011;31769;49.304;8.428;2022-11-04T00:05:29;1.73;;;1.42;;
46036;SDS011;31769;49.304;8.428;2022-11-04T00:08:29;1.35;;;1.20;;
46036;SDS011;31769;49.304;8.428;2022-11-04T00:11:30;3.85;;;1.48;;
46036;SDS011;31769;49.304;8.428;2022-11-04T00:14:49;2.78;;;1.30;;
46036;SDS011;31769;49.304;8.428;2022-11-04T00:17:50;4.28;;;1.30;;
46036;SDS011;31769;49.304;8.428;2022-11-04T00:20:50;1.77;;;0.88;;
46036;SDS011;31769;49.304;8.428;2022-11-04T00:24:10;1.10;;;1.10;;
46036;SDS011;31769;49.304;8.428;2022-11-04T00:27:30;1.88;;;1.40;;
46036;SDS011;31769;49.304;8.428;2022-11-04T00:30:53;3.17;;;1.33;;
46036;SDS011;31769;49.304;8.428;2022-11-04T00:33:56;1.00;;;0.90;;
46036;SDS011;31769;49.304;8.428;2022-11-04T00:36:58;0.95;;;0.95;;
46036;SDS011;31769;49.304;8.428;2022-11-04T00:39:59;0.82;;;0.80;;
46036;SDS011;31769;49.304;8.428;2022-11-04T00:43:00;1.63;;;0.88;;
46036;SDS011;31769;49.304;8.428;2022-11-04T00:46:00;4.70;;;0.95;;
46036;SDS011;31769;49.304;8.428;2022-11-04T00:49:01;0.70;;;0.47;;
46036;SDS011;31769;49.304;8.428;2022-11-04T00:52:02;2.63;;;0.70;;
46036;SDS011;31769;49.304;8.428;2022-11-04T00:55:03;1.63;;;0.60;;
46036;SDS011;31769;49.304;8.428;2022-11-04T00:58:04;0.82;;;0.40;;
46036;SDS011;31769;49.304;8.428;2022-11-04T01:01:08;1.35;;;1.00;;
46036;SDS011;31769;49.304;8.428;2022-11-04T01:04:10;4.32;;;1.20;;
46036;SDS011;31769;49.304;8.428;2022-11-04T01:07:10;2.97;;;1.08;;
46036;SDS011;31769;49.304;8.428;2022-11-04T01:10:11;1.42;;;0.70;;
46036;SDS011;31769;49.304;8.428;2022-11-04T01:13:12;0.95;;;0.90;;
46036;SDS011;31769;49.304;8.428;2022-11-04T01:16:13;0.85;;;0.85;;
46036;SDS011;31769;49.304;8.428;2022-11-04T01:19:14;0.77;;;0.77;;
46036;SDS011;31769;49.304;8.428;2022-11-04T01:22:15;2.50;;;0.93;;
46036;SDS011;31769;49.304;8.428;2022-11-04T01:25:15;1.33;;;1.15;;
46036;SDS011;31769;49.304;8.428;2022-11-04T01:28:16;3.33;;;1.23;;
46036;SDS011;31769;49.304;8.428;2022-11-04T01:31:18;2.47;;;1.08;;
46036;SDS011;31769;49.304;8.428;2022-11-04T01:34:20;1.42;;;1.02;;
46036;SDS011;31769;49.304;8.428;2022-11-04T01:37:21;2.45;;;1.30;;
46036;SDS011;31769;49.304;8.428;2022-11-04T01:40:22;1.17;;;0.95;;
46036;SDS011;31769;49.304;8.428;2022-11-04T01:43:23;1.75;;;1.40;;
46036;SDS011;31769;49.304;8.428;2022-11-04T01:49:53;2.13;;;1.20;;
46036;SDS011;31769;49.304;8.428;2022-11-04T01:56:06;1.42;;;1.33;;
46036;SDS011;31769;49.304;8.428;2022-11-04T01:59:35;3.17;;;1.15;;
46036;SDS011;31769;49.304;8.428;2022-11-04T02:02:36;1.48;;;1.20;;
46036;SDS011;31769;49.304;8.428;2022-11-04T02:05:45;5.13;;;1.38;;
46036;SDS011;31769;49.304;8.428;2022-11-04T02:08:47;1.15;;;1.05;;
46036;SDS011;31769;49.304;8.428;2022-11-04T02:11:48;1.95;;;1.15;;
46036;SDS011;31769;49.304;8.428;2022-11-04T02:15:08;2.72;;;1.13;;
46036;SDS011;31769;49.304;8.428;2022-11-04T02:35:25;5.28;;;1.20;;
46036;SDS011;31769;49.304;8.428;2022-11-04T02:38:52;3.47;;;1.20;;
46036;SDS011;31769;49.304;8.428;2022-11-04T02:42:14;6.18;;;1.60;;
46036;SDS011;31769;49.304;8.428;2022-11-04T02:45:45;7.07;;;1.40;;
46036;SDS011;31769;49.304;8.428;2022-11-04T02:52:13;3.40;;;1.30;;
46036;SDS011;31769;49.304;8.428;2022-11-04T02:55:38;3.05;;;1.50;;
46036;SDS011;31769;49.304;8.428;2022-11-04T02:58:45;4.60;;;1.60;;
46036;SDS011;31769;49.304;8.428;2022-11-04T03:01:52;4.65;;;1.23;;
46036;SDS011;31769;49.304;8.428;2022-11-04T03:04:55;6.00;;;1.30;;
46036;SDS011;31769;49.304;8.428;2022-11-04T03:07:58;7.20;;;1.30;;
46036;SDS011;31769;49.304;8.428;2022-11-04T03:11:02;6.88;;;0.95;;
46036;SDS011;31769;49.304;8.428;2022-11-04T03:14:09;2.80;;;0.85;;
46036;SDS011;31769;49.304;8.428;2022-11-04T03:17:20;3.58;;;0.70;;
46036;SDS011;31769;49.304;8.428;2022-11-04T03:20:33;6.07;;;0.90;;
46036;SDS011;31769;49.304;8.428;2022-11-04T03:23:38;5.63;;;1.00;;
46036;SDS011;31769;49.304;8.428;2022-11-04T03:26:59;4.93;;;0.80;;
46036;SDS011;31769;49.304;8.428;2022-11-04T03:30:30;6.22;;;0.77;;
46036;SDS011;31769;49.304;8.428;2022-11-04T03:33:38;6.10;;;1.05;;
46036;SDS011;31769;49.304;8.428;2022-11-04T03:36:42;4.55;;;1.02;;
46036;SDS011;31769;49.304;8.428;2022-11-04T03:39:43;3.72;;;1.30;;
46036;SDS011;31769;49.304;8.428;2022-11-04T03:42:45;5.85;;;1.35;;
46036;SDS011;31769;49.304;8.428;2022-11-04T03:45:53;7.18;;;0.93;;
46036;SDS011;31769;49.304;8.428;2022-11-04T03:48:54;8.15;;;1.08;;
46036;SDS011;31769;49.304;8.428;2022-11-04T03:51:56;3.80;;;1.13;;
46036;SDS011;31769;49.304;8.428;2022-11-04T03:54:57;4.72;;;1.30;;
46036;SDS011;31769;49.304;8.428;2022-11-04T03:58:02;6.63;;;1.02;;
46036;SDS011;31769;49.304;8.428;2022-11-04T04:01:14;8.40;;;1.20;;
46036;SDS011;31769;49.304;8.428;2022-11-04T04:05:05;4.93;;;1.00;;
46036;SDS011;31769;49.304;8.428;2022-11-04T04:11:40;5.68;;;1.08;;
46036;SDS011;31769;49.304;8.428;2022-11-04T04:14:46;5.80;;;0.90;;
46036;SDS011;31769;49.304;8.428;2022-11-04T04:18:02;7.75;;;1.08;;
46036;SDS011;31769;49.304;8.428;2022-11-04T04:21:10;8.93;;;1.17;;
46036;SDS011;31769;49.304;8.428;2022-11-04T04:24:14;3.08;;;1.08;;
46036;SDS011;31769;49.304;8.428;2022-11-04T04:27:38;3.58;;;0.90;;
46036;SDS011;31769;49.304;8.428;2022-11-04T04:30:40;2.22;;;0.82;;
46036;SDS011;31769;49.304;8.428;2022-11-04T04:33:42;3.75;;;1.00;;
46036;SDS011;31769;49.304;8.428;2022-11-04T04:36:50;8.18;;;1.00;;
46036;SDS011;31769;49.304;8.428;2022-11-04T04:39:58;5.88;;;1.80;;
46036;SDS011;31769;49.304;8.428;2022-11-04T04:43:18;5.82;;;2.03;;
46036;SDS011;31769;49.304;8.428;2022-11-04T04:46:37;3.92;;;1.08;;
46036;SDS011;31769;49.304;8.428;2022-11-04T04:49:50;6.10;;;1.55;;
46036;SDS011;31769;49.304;8.428;2022-11-04T04:52:52;6.30;;;1.20;;
46036;SDS011;31769;49.304;8.428;2022-11-04T04:55:54;6.05;;;1.10;;
46036;SDS011;31769;49.304;8.428;2022-11-04T04:58:55;4.47;;;0.90;;
46036;SDS011;31769;49.304;8.428;2022-11-04T05:01:56;4.55;;;1.40;;
46036;SDS011;31769;49.304;8.428;2022-11-04T05:04:57;4.05;;;1.10;;
46036;SDS011;31769;49.304;8.428;2022-11-04T05:08:05;9.90;;;1.00;;
46036;SDS011;31769;49.304;8.428;2022-11-04T05:11:06;3.78;;;1.35;;
46036;SDS011;31769;49.304;8.428;2022-11-04T05:14:06;5.30;;;0.98;;
46036;SDS011;31769;49.304;8.428;2022-11-04T05:17:07;4.30;;;1.25;;
46036;SDS011;31769;49.304;8.428;2022-11-04T05:20:08;7.10;;;1.17;;
46036;SDS011;31769;49.304;8.428;2022-11-04T05:23:09;4.32;;;1.20;;
46036;SDS011;31769;49.304;8.428;2022-11-04T05:26:11;3.47;;;0.98;;
46036;SDS011;31769;49.304;8.428;2022-11-04T05:29:13;5.35;;;0.82;;
46036;SDS011;31769;49.304;8.428;2022-11-04T05:32:14;4.82;;;1.80;;
46036;SDS011;31769;49.304;8.428;2022-11-04T05:35:15;5.25;;;1.70;;
46036;SDS011;31769;49.304;8.428;2022-11-04T05:38:15;5.18;;;1.17;;
46036;SDS011;31769;49.304;8.428;2022-11-04T05:41:16;3.88;;;1.52;;
46036;SDS011;31769;49.304;8.428;2022-11-04T05:44:26;9.50;;;1.50;;
46036;SDS011;31769;49.304;8.428;2022-11-04T05:47:27;3.90;;;1.40;;
46036;SDS011;31769;49.304;8.428;2022-11-04T05:50:28;5.65;;;2.28;;
46036;SDS011;31769;49.304;8.428;2022-11-04T05:53:30;6.13;;;2.17;;
46036;SDS011;31769;49.304;8.428;2022-11-04T05:56:31;3.33;;;1.65;;
46036;SDS011;31769;49.304;8.428;2022-11-04T05:59:31;2.65;;;1.30;;
46036;SDS011;31769;49.304;8.428;2022-11-04T06:02:32;4.65;;;1.77;;
46036;SDS011;31769;49.304;8.428;2022-11-04T06:05:33;3.00;;;1.50;;
46036;SDS011;31769;49.304;8.428;2022-11-04T06:08:34;5.57;;;1.88;;
46036;SDS011;31769;49.304;8.428;2022-11-04T06:11:34;7.10;;;1.77;;
46036;SDS011;31769;49.304;8.428;2022-11-04T06:14:36;7.47;;;2.10;;
46036;SDS011;31769;49.304;8.428;2022-11-04T06:17:37;6.90;;;2.58;;
46036;SDS011;31769;49.304;8.428;2022-11-04T06:20:38;4.63;;;2.10;;
46036;SDS011;31769;49.304;8.428;2022-11-04T06:23:39;4.35;;;1.98;;
46036;SDS011;31769;49.304;8.428;2022-11-04T06:26:40;5.07;;;2.25;;
46036;SDS011;31769;49.304;8.428;2022-11-04T06:29:41;5.35;;;2.20;;
46036;SDS011;31769;49.304;8.428;2022-11-04T06:32:42;6.07;;;2.13;;
46036;SDS011;31769;49.304;8.428;2022-11-04T06:35:43;4.70;;;2.20;;
46036;SDS011;31769;49.304;8.428;2022-11-04T06:38:43;8.05;;;3.33;;
46036;SDS011;31769;49.304;8.428;2022-11-04T06:41:44;6.97;;;4.30;;
46036;SDS011;31769;49.304;8.428;2022-11-04T06:44:45;5.30;;;3.20;;
46036;SDS011;31769;49.304;8.428;2022-11-04T06:47:45;6.05;;;2.13;;
46036;SDS011;31769;49.304;8.428;2022-11-04T06:50:46;5.47;;;2.13;;
46036;SDS011;31769;49.304;8.428;2022-11-04T06:53:47;8.23;;;2.17;;
46036;SDS011;31769;49.304;8.428;2022-11-04T06:56:48;6.55;;;2.30;;
46036;SDS011;31769;49.304;8.428;2022-11-04T06:59:48;4.93;;;2.13;;
46036;SDS011;31769;49.304;8.428;2022-11-04T07:02:49;6.05;;;1.90;;
46036;SDS011;31769;49.304;8.428;2022-11-04T07:05:50;7.78;;;4.10;;
46036;SDS011;31769;49.304;8.428;2022-11-04T07:08:51;7.00;;;4.57;;
46036;SDS011;31769;49.304;8.428;2022-11-04T07:11:52;8.02;;;4.82;;
46036;SDS011;31769;49.304;8.428;2022-11-04T07:14:53;3.75;;;1.77;;
46036;SDS011;31769;49.304;8.428;2022-11-04T07:17:55;4.30;;;1.70;;
46036;SDS011;31769;49.304;8.428;2022-11-04T07:20:58;4.05;;;1.85;;
46036;SDS011;31769;49.304;8.428;2022-11-04T07:23:59;4.63;;;1.80;;
46036;SDS011;31769;49.304;8.428;2022-11-04T07:27:01;7.07;;;1.70;;
46036;SDS011;31769;49.304;8.428;2022-11-04T07:30:01;6.00;;;1.88;;
46036;SDS011;31769;49.304;8.428;2022-11-04T07:33:02;4.18;;;2.00;;
46036;SDS011;31769;49.304;8.428;2022-11-04T07:36:04;4.22;;;1.50;;
46036;SDS011;31769;49.304;8.428;2022-11-04T07:39:06;3.50;;;1.75;;
46036;SDS011;31769;49.304;8.428;2022-11-04T07:42:07;3.42;;;1.67;;
46036;SDS011;31769;49.304;8.428;2022-11-04T07:45:08;3.20;;;1.50;;
46036;SDS011;31769;49.304;8.428;2022-11-04T07:48:09;3.17;;;1.42;;
46036;SDS011;31769;49.304;8.428;2022-11-04T07:51:10;2.50;;;1.52;;
46036;SDS011;31769;49.304;8.428;2022-11-04T07:54:15;3.85;;;1.75;;
46036;SDS011;31769;49.304;8.428;2022-11-04T07:57:16;9.52;;;1.67;;
46036;SDS011;31769;49.304;8.428;2022-11-04T08:00:17;6.50;;;1.77;;
46036;SDS011;31769;49.304;8.428;2022-11-04T08:03:18;3.00;;;1.67;;
46036;SDS011;31769;49.304;8.428;2022-11-04T08:06:19;3.53;;;1.70;;
46036;SDS011;31769;49.304;8.428;2022-11-04T08:09:20;6.32;;;2.10;;
46036;SDS011;31769;49.304;8.428;2022-11-04T08:12:22;7.95;;;2.15;;
46036;SDS011;31769;49.304;8.428;2022-11-04T08:15:23;3.95;;;2.47;;
46036;SDS011;31769;49.304;8.428;2022-11-04T08:18:24;4.97;;;1.60;;
46036;SDS011;31769;49.304;8.428;2022-11-04T08:21:24;2.70;;;1.85;;
46036;SDS011;31769;49.304;8.428;2022-11-04T08:24:25;4.43;;;1.90;;
46036;SDS011;31769;49.304;8.428;2022-11-04T08:27:26;3.95;;;1.98;;
46036;SDS011;31769;49.304;8.428;2022-11-04T08:30:26;3.35;;;1.65;;
46036;SDS011;31769;49.304;8.428;2022-11-04T08:33:28;3.08;;;1.52;;
46036;SDS011;31769;49.304;8.428;2022-11-04T08:36:31;4.03;;;1.40;;
46036;SDS011;31769;49.304;8.428;2022-11-04T08:39:35;3.70;;;1.75;;
46036;SDS011;31769;49.304;8.428;2022-11-04T08:42:36;2.83;;;1.52;;
46036;SDS011;31769;49.304;8.428;2022-11-04T08:45:37;4.18;;;1.75;;
46036;SDS011;31769;49.304;8.428;2022-11-04T08:48:40;4.40;;;1.75;;
46036;SDS011;31769;49.304;8.428;2022-11-04T08:51:43;4.10;;;1.40;;
46036;SDS011;31769;49.304;8.428;2022-11-04T08:55:31;2.72;;;1.35;;
46036;SDS011;31769;49.304;8.428;2022-11-04T08:58:32;3.65;;;1.70;;
46036;SDS011;31769;49.304;8.428;2022-11-04T09:01:34;3.38;;;1.77;;
46036;SDS011;31769;49.304;8.428;2022-11-04T09:04:35;3.55;;;1.92;;
46036;SDS011;31769;49.304;8.428;2022-11-04T09:07:36;3.20;;;1.27;;
46036;SDS011;31769;49.304;8.428;2022-11-04T09:10:39;6.18;;;1.65;;
46036;SDS011;31769;49.304;8.428;2022-11-04T09:13:42;3.55;;;1.40;;
46036;SDS011;31769;49.304;8.428;2022-11-04T09:16:43;4.10;;;1.00;;
46036;SDS011;31769;49.304;8.428;2022-11-04T09:19:44;3.30;;;1.50;;
46036;SDS011;31769;49.304;8.428;2022-11-04T09:22:45;3.15;;;1.40;;
46036;SDS011;31769;49.304;8.428;2022-11-04T09:25:49;4.63;;;1.50;;
46036;SDS011;31769;49.304;8.428;2022-11-04T09:28:53;4.20;;;1.30;;
46036;SDS011;31769;49.304;8.428;2022-11-04T09:31:55;3.60;;;1.27;;
46036;SDS011;31769;49.304;8.428;2022-11-04T09:34:55;3.95;;;1.00;;
46036;SDS011;31769;49.304;8.428;2022-11-04T09:37:58;9.70;;;2.15;;
46036;SDS011;31769;49.304;8.428;2022-11-04T09:41:00;4.63;;;2.00;;
46036;SDS011;31769;49.304;8.428;2022-11-04T09:44:17;6.43;;;1.63;;
46036;SDS011;31769;49.304;8.428;2022-11-04T09:47:39;3.38;;;1.13;;
46036;SDS011;31769;49.304;8.428;2022-11-04T09:50:44;9.95;;;1.58;;
46036;SDS011;31769;49.304;8.428;2022-11-04T09:53:50;6.20;;;1.35;;
46036;SDS011;31769;49.304;8.428;2022-11-04T09:56:56;4.00;;;1.23;;
46036;SDS011;31769;49.304;8.428;2022-11-04T10:00:00;4.65;;;1.77;;
46036;SDS011;31769;49.304;8.428;2022-11-04T10:03:03;6.10;;;1.45;;
46036;SDS011;31769;49.304;8.428;2022-11-04T10:16:03;4.15;;;2.10;;
46036;SDS011;31769;49.304;8.428;2022-11-04T10:22:33;4.65;;;1.58;;
46036;SDS011;31769;49.304;8.428;2022-11-04T10:28:56;5.13;;;1.80;;
46036;SDS011;31769;49.304;8.428;2022-11-04T10:32:02;2.25;;;1.20;;
46036;SDS011;31769;49.304;8.428;2022-11-04T10:38:40;3.70;;;1.27;;
46036;SDS011;31769;49.304;8.428;2022-11-04T10:41:44;3.70;;;1.23;;
46036;SDS011;31769;49.304;8.428;2022-11-04T10:44:47;6.95;;;1.20;;
46036;SDS011;31769;49.304;8.428;2022-11-04T10:47:51;4.18;;;1.38;;
46036;SDS011;31769;49.304;8.428;2022-11-04T10:50:59;2.65;;;1.52;;
46036;SDS011;31769;49.304;8.428;2022-11-04T10:54:00;3.47;;;1.05;;
46036;SDS011;31769;49.304;8.428;2022-11-04T10:57:04;5.60;;;1.60;;
46036;SDS011;31769;49.304;8.428;2022-11-04T11:00:05;7.95;;;1.65;;
46036;SDS011;31769;49.304;8.428;2022-11-04T11:03:27;6.35;;;1.20;;
46036;SDS011;31769;49.304;8.428;2022-11-04T11:06:34;2.40;;;1.02;;
46036;SDS011;31769;49.304;8.428;2022-11-04T11:09:49;3.25;;;1.10;;
46036;SDS011;31769;49.304;8.428;2022-11-04T11:16:08;3.55;;;1.50;;
46036;SDS011;31769;49.304;8.428;2022-11-04T11:19:17;6.00;;;1.40;;
46036;SDS011;31769;49.304;8.428;2022-11-04T11:25:35;6.57;;;2.17;;
46036;SDS011;31769;49.304;8.428;2022-11-04T11:28:48;6.38;;;1.50;;
46036;SDS011;31769;49.304;8.428;2022-11-04T11:31:55;6.00;;;1.60;;
46036;SDS011;31769;49.304;8.428;2022-11-04T11:34:58;7.13;;;2.42;;
46036;SDS011;31769;49.304;8.428;2022-11-04T11:38:02;5.30;;;1.45;;
46036;SDS011;31769;49.304;8.428;2022-11-04T11:41:06;6.55;;;2.92;;
46036;SDS011;31769;49.304;8.428;2022-11-04T11:50:27;6.40;;;2.17;;
46036;SDS011;31769;49.304;8.428;2022-11-04T11:53:34;6.18;;;1.75;;
46036;SDS011;31769;49.304;8.428;2022-11-04T11:56:38;4.43;;;1.17;;
46036;SDS011;31769;49.304;8.428;2022-11-04T11:59:46;5.47;;;1.35;;
46036;SDS011;31769;49.304;8.428;2022-11-04T12:02:52;4.75;;;1.27;;
46036;SDS011;31769;49.304;8.428;2022-11-04T12:26:09;4.03;;;0.80;;
46036;SDS011;31769;49.304;8.428;2022-11-04T12:32:28;1.80;;;0.50;;
46036;SDS011;31769;49.304;8.428;2022-11-04T12:35:57;2.78;;;0.40;;
46036;SDS011;31769;49.304;8.428;2022-11-04T12:43:17;3.42;;;1.70;;
46036;SDS011;31769;49.304;8.428;2022-11-04T12:46:34;3.13;;;0.60;;
46036;SDS011;31769;49.304;8.428;2022-11-04T12:56:37;2.90;;;0.82;;
46036;SDS011;31769;49.304;8.428;2022-11-04T13:03:26;3.70;;;2.30;;
46036;SDS011;31769;49.304;8.428;2022-11-04T13:06:36;2.38;;;0.55;;
46036;SDS011;31769;49.304;8.428;2022-11-04T13:09:53;2.78;;;0.47;;
46036;SDS011;31769;49.304;8.428;2022-11-04T13:12:57;2.65;;;0.50;;
46036;SDS011;31769;49.304;8.428;2022-11-04T13:16:02;4.18;;;0.35;;
46036;SDS011;31769;49.304;8.428;2022-11-04T13:19:20;4.20;;;0.70;;
46036;SDS011;31769;49.304;8.428;2022-11-04T13:22:26;2.28;;;0.50;;
46036;SDS011;31769;49.304;8.428;2022-11-04T13:25:36;3.97;;;0.95;;
46036;SDS011;31769;49.304;8.428;2022-11-04T13:28:41;4.68;;;1.90;;
46036;SDS011;31769;49.304;8.428;2022-11-04T13:38:14;5.07;;;0.70;;
46036;SDS011;31769;49.304;8.428;2022-11-04T13:41:38;4.72;;;0.70;;
46036;SDS011;31769;49.304;8.428;2022-11-04T13:44:40;4.15;;;0.65;;
46036;SDS011;31769;49.304;8.428;2022-11-04T13:47:45;4.85;;;0.90;;
46036;SDS011;31769;49.304;8.428;2022-11-04T13:51:10;3.67;;;0.60;;
46036;SDS011;31769;49.304;8.428;2022-11-04T13:54:30;3.30;;;0.52;;
46036;SDS011;31769;49.304;8.428;2022-11-04T13:58:02;6.15;;;0.88;;
46036;SDS011;31769;49.304;8.428;2022-11-04T14:01:16;4.53;;;1.00;;
46036;SDS011;31769;49.304;8.428;2022-11-04T14:04:30;3.88;;;0.68;;
46036;SDS011;31769;49.304;8.428;2022-11-04T14:08:06;2.92;;;0.73;;
46036;SDS011;31769;49.304;8.428;2022-11-04T14:11:04;3.58;;;0.77;;
46036;SDS011;31769;49.304;8.428;2022-11-04T14:14:13;5.13;;;0.70;;
46036;SDS011;31769;49.304;8.428;2022-11-04T14:20:34;4.82;;;0.60;;
46036;SDS011;31769;49.304;8.428;2022-11-04T14:23:36;4.53;;;0.85;;
46036;SDS011;31769;49.304;8.428;2022-11-04T14:26:45;3.90;;;0.80;;
46036;SDS011;31769;49.304;8.428;2022-11-04T14:29:48;3.63;;;0.80;;
46036;SDS011;31769;49.304;8.428;2022-11-04T14:32:53;6.35;;;2.75;;
46036;SDS011;31769;49.304;8.428;2022-11-04T14:36:22;6.65;;;4.38;;
46036;SDS011;31769;49.304;8.428;2022-11-04T14:39:32;3.38;;;0.50;;
46036;SDS011;31769;49.304;8.428;2022-11-04T14:42:54;4.82;;;0.77;;
46036;SDS011;31769;49.304;8.428;2022-11-04T14:45:56;5.53;;;1.08;;
46036;SDS011;31769;49.304;8.428;2022-11-04T14:49:00;3.67;;;1.20;;
46036;SDS011;31769;49.304;8.428;2022-11-04T14:52:02;6.50;;;0.80;;
46036;SDS011;31769;49.304;8.428;2022-11-04T14:58:21;5.78;;;1.08;;
46036;SDS011;31769;49.304;8.428;2022-11-04T15:01:30;4.50;;;1.30;;
46036;SDS011;31769;49.304;8.428;2022-11-04T15:04:33;4.78;;;1.13;;
46036;SDS011;31769;49.304;8.428;2022-11-04T15:07:35;4.20;;;1.17;;
46036;SDS011;31769;49.304;8.428;2022-11-04T15:10:37;2.92;;;1.20;;
46036;SDS011;31769;49.304;8.428;2022-11-04T15:13:45;6.03;;;1.70;;
46036;SDS011;31769;49.304;8.428;2022-11-04T15:16:51;5.30;;;1.42;;
46036;SDS011;31769;49.304;8.428;2022-11-04T15:19:55;3.05;;;1.35;;
46036;SDS011;31769;49.304;8.428;2022-11-04T15:22:59;8.30;;;1.50;;
46036;SDS011;31769;49.304;8.428;2022-11-04T15:26:02;5.18;;;1.77;;
46036;SDS011;31769;49.304;8.428;2022-11-04T15:29:07;9.25;;;3.80;;
46036;SDS011;31769;49.304;8.428;2022-11-04T15:32:14;6.78;;;2.60;;
46036;SDS011;31769;49.304;8.428;2022-11-04T15:35:16;9.35;;;3.40;;
46036;SDS011;31769;49.304;8.428;2022-11-04T15:38:17;7.25;;;2.92;;
46036;SDS011;31769;49.304;8.428;2022-11-04T15:41:18;9.18;;;3.10;;
46036;SDS011;31769;49.304;8.428;2022-11-04T15:44:43;10.27;;;3.50;;
46036;SDS011;31769;49.304;8.428;2022-11-04T15:51:40;7.70;;;2.67;;
46036;SDS011;31769;49.304;8.428;2022-11-04T15:54:42;13.15;;;3.67;;
46036;SDS011;31769;49.304;8.428;2022-11-04T15:57:46;9.57;;;3.90;;
46036;SDS011;31769;49.304;8.428;2022-11-04T16:00:53;6.05;;;2.17;;
46036;SDS011;31769;49.304;8.428;2022-11-04T16:03:55;6.93;;;1.60;;
46036;SDS011;31769;49.304;8.428;2022-11-04T16:13:31;7.32;;;2.25;;
46036;SDS011;31769;49.304;8.428;2022-11-04T16:16:32;4.88;;;1.85;;
46036;SDS011;31769;49.304;8.428;2022-11-04T16:19:33;4.90;;;1.17;;
46036;SDS011;31769;49.304;8.428;2022-11-04T16:22:34;4.47;;;2.00;;
46036;SDS011;31769;49.304;8.428;2022-11-04T16:25:38;4.45;;;2.03;;
46036;SDS011;31769;49.304;8.428;2022-11-04T16:28:39;4.22;;;2.20;;
46036;SDS011;31769;49.304;8.428;2022-11-04T16:31:41;3.92;;;2.63;;
46036;SDS011;31769;49.304;8.428;2022-11-04T16:34:45;4.90;;;2.60;;
46036;SDS011;31769;49.304;8.428;2022-11-04T16:37:48;17.07;;;11.87;;
46036;SDS011;31769;49.304;8.428;2022-11-04T16:40:49;10.52;;;7.15;;
46036;SDS011;31769;49.304;8.428;2022-11-04T16:43:50;9.63;;;4.72;;
46036;SDS011;31769;49.304;8.428;2022-11-04T16:46:52;5.95;;;3.75;;
46036;SDS011;31769;49.304;8.428;2022-11-04T16:49:53;5.47;;;4.43;;
46036;SDS011;31769;49.304;8.428;2022-11-04T16:52:58;10.90;;;5.80;;
46036;SDS011;31769;49.304;8.428;2022-11-04T16:56:02;28.42;;;25.38;;
46036;SDS011;31769;49.304;8.428;2022-11-04T16:59:03;14.73;;;11.60;;
46036;SDS011;31769;49.304;8.428;2022-11-04T17:02:17;21.25;;;13.27;;
46036;SDS011;31769;49.304;8.428;2022-11-04T17:05:22;73.53;;;65.65;;
46036;SDS011;31769;49.304;8.428;2022-11-04T17:08:23;18.90;;;16.88;;
46036;SDS011;31769;49.304;8.428;2022-11-04T17:11:24;39.08;;;21.00;;
46036;SDS011;31769;49.304;8.428;2022-11-04T17:14:25;15.23;;;6.68;;
46036;SDS011;31769;49.304;8.428;2022-11-04T17:17:26;9.65;;;4.22;;
46036;SDS011;31769;49.304;8.428;2022-11-04T17:20:26;4.28;;;2.20;;
46036;SDS011;31769;49.304;8.428;2022-11-04T17:23:28;6.25;;;2.13;;
46036;SDS011;31769;49.304;8.428;2022-11-04T17:26:29;6.10;;;2.20;;
46036;SDS011;31769;49.304;8.428;2022-11-04T17:29:31;4.78;;;1.67;;
46036;SDS011;31769;49.304;8.428;2022-11-04T17:32:32;5.50;;;2.50;;
46036;SDS011;31769;49.304;8.428;2022-11-04T17:35:33;8.13;;;2.75;;
46036;SDS011;31769;49.304;8.428;2022-11-04T17:38:36;4.10;;;2.40;;
46036;SDS011;31769;49.304;8.428;2022-11-04T17:41:36;10.40;;;7.95;;
46036;SDS011;31769;49.304;8.428;2022-11-04T17:44:56;10.65;;;6.82;;
46036;SDS011;31769;49.304;8.428;2022-11-04T17:47:56;12.93;;;9.65;;
46036;SDS011;31769;49.304;8.428;2022-11-04T17:51:05;20.83;;;16.15;;
46036;SDS011;31769;49.304;8.428;2022-11-04T17:54:06;11.85;;;7.85;;
46036;SDS011;31769;49.304;8.428;2022-11-04T17:57:07;10.55;;;5.93;;
46036;SDS011;31769;49.304;8.428;2022-11-04T18:00:08;9.93;;;7.65;;
46036;SDS011;31769;49.304;8.428;2022-11-04T18:03:09;20.17;;;17.10;;
46036;SDS011;31769;49.304;8.428;2022-11-04T18:06:11;15.25;;;12.13;;
46036;SDS011;31769;49.304;8.428;2022-11-04T18:09:12;15.65;;;11.48;;
46036;SDS011;31769;49.304;8.428;2022-11-04T18:12:16;12.05;;;9.82;;
46036;SDS011;31769;49.304;8.428;2022-11-04T18:15:36;14.75;;;9.27;;
46036;SDS011;31769;49.304;8.428;2022-11-04T18:18:36;12.30;;;10.82;;
46036;SDS011;31769;49.304;8.428;2022-11-04T18:21:37;12.68;;;8.95;;
46036;SDS011;31769;49.304;8.428;2022-11-04T18:24:38;10.95;;;9.13;;
46036;SDS011;31769;49.304;8.428;2022-11-04T18:27:39;12.82;;;10.43;;
46036;SDS011;31769;49.304;8.428;2022-11-04T18:30:40;10.68;;;9.43;;
46036;SDS011;31769;49.304;8.428;2022-11-04T18:33:41;10.90;;;8.10;;
46036;SDS011;31769;49.304;8.428;2022-11-04T18:36:42;11.23;;;8.10;;
46036;SDS011;31769;49.304;8.428;2022-11-04T18:39:43;10.35;;;7.85;;
46036;SDS011;31769;49.304;8.428;2022-11-04T18:42:44;8.60;;;7.03;;
46036;SDS011;31769;49.304;8.428;2022-11-04T18:45:44;7.03;;;4.88;;
46036;SDS011;31769;49.304;8.428;2022-11-04T18:48:49;6.88;;;4.70;;
46036;SDS011;31769;49.304;8.428;2022-11-04T18:51:50;6.95;;;5.45;;
46036;SDS011;31769;49.304;8.428;2022-11-04T18:54:51;18.65;;;12.07;;
46036;SDS011;31769;49.304;8.428;2022-11-04T18:57:52;20.67;;;14.48;;
46036;SDS011;31769;49.304;8.428;2022-11-04T19:00:54;14.10;;;6.47;;
46036;SDS011;31769;49.304;8.428;2022-11-04T19:03:55;16.48;;;8.73;;
46036;SDS011;31769;49.304;8.428;2022-11-04T19:06:55;14.40;;;6.70;;
46036;SDS011;31769;49.304;8.428;2022-11-04T19:09:56;12.27;;;6.70;;
46036;SDS011;31769;49.304;8.428;2022-11-04T19:12:57;11.48;;;7.65;;
46036;SDS011;31769;49.304;8.428;2022-11-04T19:16:16;15.63;;;11.20;;
46036;SDS011;31769;49.304;8.428;2022-11-04T19:19:17;12.35;;;8.18;;
46036;SDS011;31769;49.304;8.428;2022-11-04T19:22:18;12.40;;;9.18;;
46036;SDS011;31769;49.304;8.428;2022-11-04T19:25:19;8.27;;;6.85;;
46036;SDS011;31769;49.304;8.428;2022-11-04T19:28:19;7.78;;;6.38;;
46036;SDS011;31769;49.304;8.428;2022-11-04T19:31:21;9.57;;;6.57;;
46036;SDS011;31769;49.304;8.428;2022-11-04T19:34:24;13.10;;;9.38;;
46036;SDS011;31769;49.304;8.428;2022-11-04T19:37:25;13.02;;;10.15;;
46036;SDS011;31769;49.304;8.428;2022-11-04T19:40:26;14.77;;;11.45;;
46036;SDS011;31769;49.304;8.428;2022-11-04T19:43:27;14.73;;;12.60;;
46036;SDS011;31769;49.304;8.428;2022-11-04T19:46:28;14.82;;;13.27;;
46036;SDS011;31769;49.304;8.428;2022-11-04T19:49:29;16.17;;;14.52;;
46036;SDS011;31769;49.304;8.428;2022-11-04T19:52:30;19.13;;;14.35;;
46036;SDS011;31769;49.304;8.428;2022-11-04T19:55:31;18.05;;;12.27;;
46036;SDS011;31769;49.304;8.428;2022-11-04T19:58:32;15.70;;;11.60;;
46036;SDS011;31769;49.304;8.428;2022-11-04T20:01:33;14.27;;;10.93;;
46036;SDS011;31769;49.304;8.428;2022-11-04T20:04:34;15.90;;;12.70;;
46036;SDS011;31769;49.304;8.428;2022-11-04T20:07:35;16.15;;;12.00;;
46036;SDS011;31769;49.304;8.428;2022-11-04T20:10:39;12.50;;;11.20;;
46036;SDS011;31769;49.304;8.428;2022-11-04T20:13:41;15.90;;;13.10;;
46036;SDS011;31769;49.304;8.428;2022-11-04T20:16:48;18.70;;;13.38;;
46036;SDS011;31769;49.304;8.428;2022-11-04T20:19:49;15.75;;;13.82;;
46036;SDS011;31769;49.304;8.428;2022-11-04T20:22:49;26.13;;;14.60;;
46036;SDS011;31769;49.304;8.428;2022-11-04T20:25:50;20.90;;;16.38;;
46036;SDS011;31769;49.304;8.428;2022-11-04T20:28:51;19.58;;;15.02;;
46036;SDS011;31769;49.304;8.428;2022-11-04T20:31:53;20.60;;;18.38;;
46036;SDS011;31769;49.304;8.428;2022-11-04T20:34:54;17.85;;;15.98;;